Latest Weather Observations for Snowtown

IDS60801

Issued at 5:01 pm CST Thursday 28 May 2015 (issued every 30 minutes, with the page automatically refreshed every 10 minutes)

About weather observations | Map of weather stations | Latest weather observations for SA | Other Formats
Station Details ID: 021133 Name: RAYVILLE PARK Lat: -33.77 Lon: 138.22 Height: 109.1 m
Data from the previous 72 hours. | See also: Recent months at Snowtown
Date/Time
CST
Temp
°C
App
Temp
°C
Dew
Point
Rel
Hum
%
Delta-T
°C
Wind Press
QNH
hPa
Press
MSL
hPa
Rain
since 9 am
mm
Dir
 
Spd
km/h
Gust
km/h
Spd
kts
Gust
kts
28/05:00pm 16.0 13.8 9.4 65 3.4 WNW 11 17 6 9 1019.5 1019.5 0.0
28/04:30pm 17.1 13.8 9.5 61 4.0 W 17 22 9 12 1019.3 1019.3 0.0
28/04:00pm 17.7 13.3 8.8 56 4.6 W 22 32 12 17 1019.2 1019.2 0.0
28/03:30pm 18.4 13.9 8.7 53 5.0 W 22 30 12 16 1018.9 1018.9 0.0
28/03:00pm 18.8 14.2 8.2 50 5.5 W 22 32 12 17 1018.7 1018.7 0.0
28/02:30pm 19.2 13.3 7.6 47 5.9 W 28 35 15 19 1018.7 1018.7 0.0
28/02:00pm 19.9 14.6 7.0 43 6.6 W 24 35 13 19 1018.6 1018.6 0.0
28/01:30pm 20.0 15.4 8.0 46 6.2 WNW 22 35 12 19 1018.7 1018.7 0.0
28/01:00pm 19.5 15.2 7.9 47 6.0 WNW 20 30 11 16 1019.1 1019.1 0.0
28/12:30pm 19.8 15.6 8.2 47 6.0 WNW 20 33 11 18 1019.5 1019.5 0.0
28/12:00pm 18.7 15.1 9.8 56 4.7 NW 19 28 10 15 1019.6 1019.6 0.0
28/11:30am 18.8 16.5 11.6 63 4.0 NW 15 20 8 11 1020.1 1020.1 0.0
28/11:00am 18.1 16.0 12.3 69 3.2 NW 15 19 8 10 1020.5 1020.5 0.0
28/10:30am 17.1 15.3 12.0 72 2.8 NNW 13 20 7 11 1020.8 1020.8 0.0
28/10:00am 16.8 14.7 12.3 75 2.5 NNW 15 19 8 10 1020.8 1020.8 0.0
28/09:30am 16.4 15.1 12.4 77 2.2 NNW 11 17 6 9 1020.6 1020.6 0.0
28/09:00am 15.9 14.5 12.3 79 2.0 N 11 15 6 8 1020.6 1020.6 0.0
28/08:30am 14.2 12.9 12.4 89 1.0 N 11 13 6 7 1020.2 1020.2 0.0
28/08:00am 11.6 9.4 10.8 95 0.4 N 13 15 7 8 1020.1 1020.1 0.0
28/07:30am 10.9 9.1 9.5 91 0.7 N 9 11 5 6 1019.6 1019.6 0.0
28/07:00am 12.5 11.7 11.7 95 0.4 N 7 9 4 5 1019.5 1019.5 0.0
28/06:30am 11.3 9.6 9.7 90 0.8 N 9 9 5 5 1019.3 1019.3 0.0
28/06:00am 10.3 7.3 9.2 93 0.5 N 15 17 8 9 1018.9 1018.9 0.0
28/05:30am 8.7 6.0 7.5 92 0.6 N 11 15 6 8 1018.2 1018.2 0.0
28/05:00am 7.8 4.2 6.7 93 0.5 NNE 15 17 8 9 1018.6 1018.6 0.0
28/04:30am 8.0 4.0 6.6 91 0.6 NNE 17 19 9 10 1018.4 1018.4 0.0
28/04:00am 10.7 7.4 6.5 75 2.0 NW 13 19 7 10 1018.3 1018.3 0.0
28/03:30am 12.7 8.7 9.2 79 1.8 WNW 20 24 11 13 1018.3 1018.3 0.0
28/03:00am 9.7 6.8 8.3 91 0.7 N 13 17 7 9 1018.3 1018.3 0.0
28/02:30am 7.4 3.6 5.9 90 0.7 NNE 15 19 8 10 1018.2 1018.2 0.0
28/02:00am 6.5 3.2 4.8 89 0.7 NNE 11 13 6 7 1018.1 1018.1 0.0
28/01:30am 7.7 3.9 5.8 88 0.9 N 15 17 8 9 1018.8 1018.8 0.0
28/01:00am 8.7 6.6 6.0 83 1.2 N 6 9 3 5 1018.6 1018.6 0.0
28/12:30am 9.0 6.0 5.9 81 1.4 N 11 13 6 7 1018.8 1018.8 0.0
28/12:00am 7.8 7.0 6.3 90 0.7 CALM 0 0 0 0 1019.0 1019.0 0.0
 
Date/Time
CST
Temp
°C
App
Temp
°C
Dew
Point
Rel
Hum
%
Delta-T
°C
Wind Press
QNH
hPa
Press
MSL
hPa
Rain
since 9 am
mm
Dir
 
Spd
km/h
Gust
km/h
Spd
kts
Gust
kts
27/11:30pm 8.1 6.0 5.9 86 1.0 WNW 6 11 3 6 1019.1 1019.1 0.0
27/11:00pm 7.8 5.4 5.3 84 1.1 WNW 7 9 4 5 1019.3 1019.3 0.0
27/10:30pm 7.2 4.0 4.9 85 1.0 WNW 11 13 6 7 1019.4 1019.4 0.0
27/10:00pm 8.9 7.9 5.8 81 1.4 CALM 0 0 0 0 1019.5 1019.5 0.0
27/09:30pm 9.8 8.9 6.0 77 1.8 CALM 0 0 0 0 1019.6 1019.6 0.0
27/09:00pm 9.8 8.0 5.6 75 1.9 WNW 4 9 2 5 1019.6 1019.6 0.0
27/08:30pm 9.3 6.4 4.9 74 2.0 WNW 9 11 5 6 1019.6 1019.6 0.0
27/08:00pm 9.6 6.3 4.4 70 2.3 WNW 11 13 6 7 1019.6 1019.6 0.0
27/07:30pm 9.2 6.2 4.2 71 2.2 SSW 9 11 5 6 1019.3 1019.3 0.0
27/07:00pm 9.9 7.0 4.5 69 2.4 W 9 13 5 7 1019.2 1019.2 0.0
27/06:30pm 10.5 7.8 3.8 63 3.0 W 7 11 4 6 1019.0 1019.0 0.0
27/06:00pm 11.7 8.5 3.2 56 3.7 W 9 9 5 5 1018.9 1018.9 0.0
27/05:30pm 14.5 11.8 3.6 48 5.0 W 7 9 4 5 1018.6 1018.6 0.0
27/05:00pm 18.7 16.2 3.7 37 7.1 W 6 7 3 4 1018.7 1018.7 0.0
27/04:30pm 20.1 16.5 2.9 32 8.1 W 11 15 6 8 1018.7 1018.7 0.0
27/04:00pm 20.7 16.6 2.5 30 8.5 WNW 13 19 7 10 1018.8 1018.8 0.0
27/03:30pm 21.0 15.9 3.2 31 8.5 W 19 22 10 12 1018.9 1018.9 0.0
27/03:00pm 21.2 15.9 3.0 30 8.6 WNW 20 28 11 15 1018.9 1018.9 0.0
27/02:30pm 21.9 16.8 4.0 31 8.7 NW 20 30 11 16 1019.0 1019.0 0.0
27/02:00pm 21.6 16.4 3.8 31 8.6 NW 20 30 11 16 1018.9 1018.9 0.0
27/01:30pm 21.6 16.5 5.9 36 7.9 NW 22 28 12 15 1019.1 1019.1 0.0
27/01:00pm 21.2 15.8 4.7 34 8.1 NW 22 32 12 17 1019.5 1019.5 0.0
27/12:30pm 21.0 16.3 7.6 42 6.9 NNW 22 32 12 17 1019.8 1019.8 0.0
27/12:00pm 20.9 17.2 9.5 48 6.1 NNW 19 32 10 17 1020.3 1020.3 0.0
27/11:30am 20.4 16.4 9.0 48 6.0 NNW 20 26 11 14 1020.8 1020.8 0.0
27/11:00am 19.4 16.4 10.7 57 4.7 N 17 24 9 13 1021.3 1021.3 0.0
27/10:30am 18.6 15.8 11.2 62 4.0 N 17 24 9 13 1021.5 1021.5 0.0
27/10:00am 17.2 14.0 11.2 68 3.3 NNE 19 24 10 13 1021.7 1021.7 0.0
27/09:30am 15.9 12.7 11.3 74 2.5 N 19 20 10 11 1021.6 1021.6 0.0
27/09:00am 14.3 12.2 11.1 81 1.7 NNE 13 15 7 8 1021.6 1021.6 0.2
27/08:30am 12.0 9.2 10.1 88 1.0 NNE 15 19 8 10 1021.6 1021.6 0.2
27/08:00am 10.3 7.6 9.1 92 0.6 NNE 13 17 7 9 1021.5 1021.5 0.2
27/07:30am 10.2 7.1 9.0 92 0.6 NE 15 20 8 11 1021.3 1021.3 0.2
27/07:00am 9.3 6.3 7.9 91 0.7 N 13 15 7 8 1020.9 1020.9 0.2
27/06:30am 12.4 8.9 8.9 79 1.8 NW 17 20 9 11 1020.6 1020.6 0.2
27/06:00am 12.6 8.6 9.1 79 1.8 NW 20 22 11 12 1020.3 1020.3 0.2
27/05:30am 12.0 8.2 9.0 82 1.5 NW 19 20 10 11 1020.4 1020.4 0.2
27/05:00am 10.8 9.0 9.4 91 0.7 NNW 9 17 5 9 1020.4 1020.4 0.2
27/04:30am 11.2 8.6 9.3 88 1.0 N 13 15 7 8 1020.3 1020.3 0.2
27/04:00am 11.2 8.3 9.5 89 0.9 NNW 15 17 8 9 1020.3 1020.3 0.2
27/03:30am 9.4 8.3 8.3 93 0.5 NW 4 9 2 5 1020.5 1020.5 0.2
27/03:00am 9.5 8.7 8.1 91 0.7 NW 2 6 1 3 1020.6 1020.6 0.2
27/02:30am 10.4 10.2 9.0 91 0.7 CALM 0 0 0 0 1020.8 1020.8 0.2
27/02:00am 10.3 8.7 8.9 91 0.7 NW 7 11 4 6 1021.0 1021.0 0.2
27/01:30am 11.4 8.5 9.5 88 1.0 NW 15 17 8 9 1021.1 1021.1 0.2
27/01:00am 11.3 8.8 9.6 89 0.9 NW 13 15 7 8 1021.3 1021.3 0.2
27/12:30am 12.4 10.4 10.3 87 1.1 NW 11 13 6 7 1021.4 1021.4 0.2
27/12:00am 12.5 10.7 10.7 89 0.9 W 11 13 6 7 1021.6 1021.6 0.2
 
Date/Time
CST
Temp
°C
App
Temp
°C
Dew
Point
Rel
Hum
%
Delta-T
°C
Wind Press
QNH
hPa
Press
MSL
hPa
Rain
since 9 am
mm
Dir
 
Spd
km/h
Gust
km/h
Spd
kts
Gust
kts
26/11:30pm 13.1 13.2 10.1 82 1.5 CALM 0 0 0 0 1021.9 1021.9 0.2
26/11:00pm 13.4 12.5 10.8 84 1.4 SSW 6 9 3 5 1022.0 1022.0 0.2
26/10:30pm 14.4 13.3 10.8 79 1.9 SSW 7 9 4 5 1022.1 1022.1 0.2
26/10:00pm 14.9 12.7 10.7 76 2.2 WNW 13 19 7 10 1022.2 1022.2 0.2
26/09:30pm 15.7 12.0 9.4 66 3.3 NW 19 24 10 13 1022.2 1022.2 0.0
26/09:00pm 15.4 13.2 9.3 67 3.1 NNW 11 15 6 8 1022.1 1022.1 0.0
26/08:30pm 15.3 11.9 9.2 67 3.1 N 17 20 9 11 1021.9 1021.9 0.0
26/08:00pm 15.2 12.3 9.6 69 2.9 NNE 15 19 8 10 1021.8 1021.8 0.0
26/07:30pm 15.8 13.1 9.0 64 3.5 NNW 13 15 7 8 1021.7 1021.7 0.0
26/07:00pm 16.4 12.9 8.9 61 3.9 NNW 17 19 9 10 1021.5 1021.5 0.0
26/06:30pm 16.0 13.9 8.2 60 3.9 NNW 9 11 5 6 1021.5 1021.5 0.0
26/06:00pm 17.6 14.4 8.5 55 4.7 NNW 15 19 8 10 1021.3 1021.3 0.0
26/05:30pm 17.9 14.6 8.2 53 5.0 NNW 15 19 8 10 1021.3 1021.3 0.0
26/05:00pm 17.7 14.1 8.3 54 4.8 NNW 17 19 9 10 1021.1 1021.1 0.0
26/04:30pm 19.4 15.2 8.1 48 5.8 NNW 20 24 11 13 1021.0 1021.0 0.0
26/04:00pm 19.7 15.9 7.4 45 6.3 NNW 17 22 9 12 1021.1 1021.1 0.0
26/03:30pm 20.9 16.4 6.8 40 7.2 NW 20 30 11 16 1021.0 1021.0 0.0
26/03:00pm 21.5 17.2 7.0 39 7.4 NW 19 26 10 14 1021.1 1021.1 0.0
26/02:30pm 20.7 15.3 6.3 39 7.2 NW 24 32 13 17 1021.3 1021.3 0.0
26/02:00pm 21.3 16.9 7.2 40 7.3 NW 20 28 11 15 1021.6 1021.6 0.0
26/01:30pm 20.6 15.3 6.9 41 7.0 NW 24 32 13 17 1022.0 1022.0 0.0
26/01:00pm 20.8 16.5 7.8 43 6.8 NNW 20 32 11 17 1022.5 1022.4 0.0
26/12:30pm 20.1 15.7 7.5 44 6.5 N 20 26 11 14 1023.1 1023.0 0.0
26/12:00pm 20.2 16.3 8.5 47 6.1 N 19 28 10 15 1023.5 1023.4 0.0
26/11:30am 18.9 15.6 9.7 55 4.9 NNE 17 22 9 12 1024.2 1024.2 0.0
26/11:00am 18.2 14.5 10.1 59 4.3 NNE 20 24 11 13 1024.7 1024.7 0.0
26/10:30am 17.3 13.4 10.7 65 3.5 NNE 22 26 12 14 1024.9 1024.9 0.0
26/10:00am 16.4 12.8 9.8 65 3.5 NNE 19 24 10 13 1025.3 1025.3 0.0
26/09:30am 16.2 12.0 9.8 66 3.3 N 22 28 12 15 1025.4 1025.4 0.0
26/09:00am 15.3 12.2 10.3 72 2.6 N 17 20 9 11 1025.4 1025.4 0.0
26/08:30am 14.7 11.4 9.7 72 2.6 N 17 22 9 12 1025.3 1025.3 0.0
26/08:00am 14.1 10.8 9.7 75 2.3 N 17 19 9 10 1025.1 1025.1 0.0
26/07:30am 12.2 9.3 9.6 84 1.3 N 15 17 8 9 1025.2 1025.2 0.0
26/07:00am 12.4 9.9 9.6 83 1.4 N 13 15 7 8 1025.2 1025.2 0.0
26/06:30am 13.2 10.3 9.5 78 1.9 N 15 17 8 9 1025.1 1025.1 0.0
26/06:00am 13.0 9.7 9.6 80 1.7 N 17 20 9 11 1025.0 1025.0 0.0
26/05:30am 12.6 9.6 9.4 81 1.6 NNE 15 17 8 9 1025.0 1025.0 0.0
26/05:00am 13.1 10.5 9.4 78 1.9 NNE 13 15 7 8 1024.9 1024.9 0.0
26/04:30am 13.1 10.1 9.2 77 2.0 NNE 15 19 8 10 1025.1 1025.1 0.0
26/04:00am 13.1 10.0 9.0 76 2.1 N 15 17 8 9 1025.1 1025.1 0.0
26/03:30am 11.2 8.8 8.8 85 1.2 N 11 13 6 7 1025.4 1025.4 0.0
26/03:00am 11.8 9.9 9.0 83 1.4 N 9 11 5 6 1025.5 1025.5 0.0
26/02:30am 12.3 9.6 9.1 81 1.6 N 13 17 7 9 1025.7 1025.7 0.0
26/02:00am 12.6 9.6 9.1 79 1.8 NNW 15 17 8 9 1025.9 1025.9 0.0
26/01:30am 12.0 9.6 8.8 81 1.6 WNW 11 13 6 7 1026.1 1026.1 0.0
26/01:00am 11.5 10.0 9.1 85 1.2 WNW 7 9 4 5 1025.8 1025.8 0.0
26/12:30am 12.0 11.0 8.8 81 1.6 WNW 4 6 2 3 1026.2 1026.2 0.0
26/12:00am 12.1 10.3 9.3 83 1.4 N 9 13 5 7 1026.8 1026.8 0.0
 
Date/Time
CST
Temp
°C
App
Temp
°C
Dew
Point
Rel
Hum
%
Delta-T
°C
Wind Press
QNH
hPa
Press
MSL
hPa
Rain
since 9 am
mm
Dir
 
Spd
km/h
Gust
km/h
Spd
kts
Gust
kts
25/11:30pm 11.4 9.5 9.1 86 1.1 NNE 9 9 5 5 1026.7 1026.7 0.0
25/11:00pm 11.5 9.2 8.9 84 1.3 N 11 13 6 7 1026.7 1026.7 0.0
25/10:30pm 12.6 11.1 8.5 76 2.0 N 6 7 3 4 1027.0 1027.0 0.0
25/10:00pm 13.0 10.5 8.3 73 2.3 N 11 13 6 7 1027.4 1027.4 0.0
25/09:30pm 12.6 9.7 8.3 75 2.1 N 13 17 7 9 1027.1 1027.1 0.0
25/09:00pm 11.6 9.4 7.9 78 1.8 NW 9 11 5 6 1026.9 1026.9 0.0
25/08:30pm 11.6 9.6 8.5 81 1.5 NW 9 11 5 6 1026.9 1026.9 0.0
25/08:00pm 12.3 10.2 8.4 77 1.9 NW 9 11 5 6 1026.7 1026.7 0.0
25/07:30pm 12.9 10.7 8.0 72 2.4 NW 9 11 5 6 1026.6 1026.6 0.0
25/07:00pm 12.8 10.9 7.7 71 2.5 NW 7 11 4 6 1026.7 1026.7 0.0
25/06:30pm 13.5 10.9 7.7 68 2.9 NW 11 13 6 7 1026.5 1026.5 0.0
25/06:00pm 15.0 12.0 7.5 61 3.7 NW 13 15 7 8 1026.6 1026.6 0.0
25/05:30pm 14.8 12.6 7.8 63 3.5 NNE 9 11 5 6 1026.1 1026.1 0.0

Other Formats:

Comma delimited format used in spreadsheet applications
http://www.bom.gov.au/fwo/IDS60801/IDS60801.95670.axf

JavaScript Object Notation format (JSON) in row-major order
http://www.bom.gov.au/fwo/IDS60801/IDS60801.95670.json